createdAt,value
2018-10-18T00:00:13.280Z,22.82
2018-10-18T00:02:41.274Z,22.90
2018-10-18T00:05:09.794Z,23.25
2018-10-18T00:07:37.952Z,23.67
2018-10-18T00:10:07.080Z,23.40
2018-10-18T00:12:35.177Z,22.10
2018-10-18T00:15:03.325Z,22.13
2018-10-18T00:17:37.033Z,20.77
2018-10-18T00:20:06.019Z,22.05
2018-10-18T00:22:33.984Z,22.77
2018-10-18T00:25:02.081Z,21.23
2018-10-18T00:27:30.300Z,22.02
2018-10-18T00:30:04.681Z,22.07
2018-10-18T00:32:32.717Z,21.65
2018-10-18T00:35:00.840Z,22.07
2018-10-18T00:37:29.018Z,21.70
2018-10-18T00:39:57.104Z,21.20
2018-10-18T00:42:25.228Z,21.65
2018-10-18T00:44:53.337Z,21.77
2018-10-18T00:47:21.436Z,23.38
2018-10-18T00:49:49.525Z,21.70
2018-10-18T00:52:17.789Z,23.07
2018-10-18T00:54:45.948Z,21.83
2018-10-18T00:57:14.300Z,22.62
2018-10-18T00:59:42.417Z,22.70
2018-10-18T01:02:10.636Z,23.25
2018-10-18T01:04:38.669Z,23.35
2018-10-18T01:07:06.833Z,22.82
2018-10-18T01:09:34.940Z,24.05
2018-10-18T01:12:03.084Z,24.47
2018-10-18T01:14:31.173Z,24.18
2018-10-18T01:17:02.876Z,24.67
2018-10-18T01:19:32.537Z,24.15
2018-10-18T01:22:00.933Z,24.75
2018-10-18T01:24:29.077Z,24.57
2018-10-18T01:26:57.241Z,24.43
2018-10-18T01:29:25.850Z,23.60
2018-10-18T01:31:54.006Z,24.23
2018-10-18T01:34:22.273Z,24.50
2018-10-18T01:36:50.397Z,22.75
2018-10-18T01:39:18.538Z,25.05
2018-10-18T01:41:46.669Z,25.62
2018-10-18T01:44:14.892Z,25.50
2018-10-18T01:46:43.083Z,25.65
2018-10-18T01:49:11.329Z,26.27
2018-10-18T01:51:39.457Z,25.48
2018-10-18T01:54:07.633Z,25.25
2018-10-18T01:56:35.784Z,25.60
2018-10-18T01:59:04.054Z,24.67
2018-10-18T02:01:32.164Z,24.57
2018-10-18T02:04:00.612Z,25.27
2018-10-18T02:06:28.753Z,24.12
2018-10-18T02:08:56.912Z,25.00
2018-10-18T02:11:25.040Z,26.60
2018-10-18T02:13:53.185Z,28.12
2018-10-18T02:16:21.392Z,26.13
2018-10-18T02:18:49.572Z,24.12
2018-10-18T02:21:17.681Z,23.87
2018-10-18T02:23:45.819Z,24.20
2018-10-18T02:26:14.134Z,24.85
2018-10-18T02:28:42.286Z,24.07
2018-10-18T02:31:10.544Z,24.37
2018-10-18T02:33:38.685Z,25.62
2018-10-18T02:36:06.870Z,24.63
2018-10-18T02:38:34.983Z,23.90
2018-10-18T02:41:03.184Z,23.60
2018-10-18T02:46:10.772Z,24.07
2018-10-18T02:48:38.918Z,24.82
2018-10-18T02:51:07.248Z,24.55
2018-10-18T02:53:35.381Z,24.37
2018-10-18T02:56:03.527Z,23.93
2018-10-18T02:58:31.667Z,23.75
2018-10-18T03:00:59.927Z,22.62
2018-10-18T03:03:28.077Z,22.87
2018-10-18T03:05:56.322Z,22.85
2018-10-18T03:08:24.436Z,23.20
2018-10-18T03:10:52.572Z,22.42
2018-10-18T03:13:20.808Z,24.18
2018-10-18T03:15:49.028Z,22.85
2018-10-18T03:18:17.289Z,26.45
2018-10-18T03:20:45.349Z,26.10
2018-10-18T03:23:13.490Z,26.35
2018-10-18T03:25:41.660Z,25.68
2018-10-18T03:28:09.858Z,25.23
2018-10-18T03:30:38.018Z,24.32
2018-10-18T03:33:06.173Z,25.30
2018-10-18T03:35:34.309Z,24.60
2018-10-18T03:38:02.462Z,26.20
2018-10-18T03:40:30.710Z,25.35
2018-10-18T03:42:59.028Z,26.33
2018-10-18T03:45:27.185Z,25.88
2018-10-18T03:47:55.660Z,25.27
2018-10-18T03:50:23.747Z,24.80
2018-10-18T03:52:51.871Z,24.90
2018-10-18T03:55:20.021Z,24.72
2018-10-18T03:57:48.201Z,25.43
2018-10-18T04:00:16.447Z,25.60
2018-10-18T04:02:44.507Z,24.60
2018-10-18T04:05:12.681Z,25.20
2018-10-18T04:07:40.818Z,23.85
2018-10-18T04:10:09.060Z,24.25
2018-10-18T04:12:37.245Z,24.50
2018-10-18T04:15:08.431Z,23.70
2018-10-18T04:17:36.645Z,23.47
2018-10-18T04:20:06.004Z,25.08
2018-10-18T04:22:34.363Z,24.55
2018-10-18T04:25:02.473Z,24.18
2018-10-18T04:27:30.613Z,23.87
2018-10-18T04:29:58.747Z,24.70
2018-10-18T04:32:26.873Z,24.87
2018-10-18T04:34:55.084Z,25.50
2018-10-18T04:37:23.301Z,26.82
2018-10-18T04:39:51.388Z,27.02
2018-10-18T04:42:19.581Z,24.82
2018-10-18T04:44:47.708Z,26.33
2018-10-18T04:47:15.838Z,26.15
2018-10-18T04:49:43.975Z,26.37
2018-10-18T04:52:12.080Z,26.62
2018-10-18T04:54:40.340Z,26.68
2018-10-18T04:57:08.477Z,25.15
2018-10-18T04:59:36.679Z,25.43
2018-10-18T05:02:05.073Z,25.32
2018-10-18T05:04:33.230Z,26.52
2018-10-18T05:07:01.435Z,26.50
2018-10-18T05:09:29.638Z,25.37
2018-10-18T05:11:57.799Z,25.00
2018-10-18T05:14:25.949Z,24.15
2018-10-18T05:16:54.151Z,24.65
2018-10-18T05:19:22.296Z,26.02
2018-10-18T05:21:50.403Z,24.60
2018-10-18T05:24:19.022Z,25.80
2018-10-18T05:26:47.148Z,25.43
2018-10-18T05:29:15.288Z,27.80
2018-10-18T05:31:43.643Z,25.95
2018-10-18T05:34:11.695Z,27.40
2018-10-18T05:36:39.928Z,27.55
2018-10-18T05:39:09.345Z,26.33
2018-10-18T05:41:37.506Z,28.77
2018-10-18T05:44:06.068Z,29.12
2018-10-18T05:46:34.273Z,32.00
2018-10-18T05:49:02.551Z,32.60
2018-10-18T05:51:30.661Z,30.90
2018-10-18T05:53:58.966Z,29.18
2018-10-18T05:56:26.935Z,28.55
2018-10-18T05:58:55.179Z,29.25
2018-10-18T06:01:23.394Z,29.42
2018-10-18T06:03:51.648Z,29.35
2018-10-18T06:06:19.976Z,28.38
2018-10-18T06:08:48.150Z,28.70
2018-10-18T06:11:25.866Z,27.32
2018-10-18T06:13:54.061Z,29.23
2018-10-18T06:16:23.261Z,29.10
2018-10-18T06:18:51.446Z,29.67
2018-10-18T06:21:19.649Z,29.53
2018-10-18T06:23:47.914Z,29.82
2018-10-18T06:26:16.229Z,29.80
2018-10-18T06:28:44.378Z,29.27
2018-10-18T06:31:12.658Z,29.67
2018-10-18T06:33:40.841Z,29.90
2018-10-18T06:36:08.967Z,29.90
2018-10-18T06:38:37.254Z,29.25
2018-10-18T06:41:05.767Z,28.38
2018-10-18T06:43:39.996Z,29.27
2018-10-18T06:46:10.390Z,28.97
2018-10-18T06:48:38.505Z,28.77
2018-10-18T06:51:06.789Z,28.67
2018-10-18T06:53:34.890Z,27.10
2018-10-18T06:56:03.136Z,27.27
2018-10-18T06:58:31.266Z,28.00
2018-10-18T07:00:59.519Z,28.53
2018-10-18T07:03:27.633Z,29.50
2018-10-18T07:05:55.751Z,29.00
2018-10-18T07:08:23.897Z,27.80
2018-10-18T07:10:52.054Z,27.05
2018-10-18T07:13:20.211Z,26.68
2018-10-18T07:15:48.509Z,28.32
2018-10-18T07:18:16.807Z,35.43
2018-10-18T07:20:44.776Z,28.90
2018-10-18T07:23:13.013Z,29.70
2018-10-18T07:25:41.149Z,31.20
2018-10-18T07:28:09.305Z,31.30
2018-10-18T07:30:37.418Z,30.08
2018-10-18T07:33:05.585Z,30.57
2018-10-18T07:35:33.721Z,30.05
2018-10-18T07:38:02.006Z,25.65
2018-10-18T07:40:30.117Z,25.10
2018-10-18T07:42:58.400Z,24.32
2018-10-18T07:45:26.529Z,24.98
2018-10-18T07:47:54.693Z,26.27
2018-10-18T07:50:22.793Z,28.32
2018-10-18T07:52:50.968Z,28.15
2018-10-18T07:55:19.097Z,26.25
2018-10-18T07:57:47.249Z,26.48
2018-10-18T08:00:16.501Z,27.60
2018-10-18T08:02:45.081Z,27.48
2018-10-18T08:05:13.852Z,25.37
2018-10-18T08:07:41.976Z,23.80
2018-10-18T08:10:12.672Z,21.68
2018-10-18T08:12:40.812Z,19.73
2018-10-18T08:15:09.827Z,24.20
2018-10-18T08:17:38.015Z,20.88
2018-10-18T08:20:06.965Z,21.80
2018-10-18T08:22:35.187Z,23.87
2018-10-18T08:25:03.272Z,25.43
2018-10-18T08:27:31.394Z,22.95
2018-10-18T08:29:59.592Z,25.05
2018-10-18T08:32:27.708Z,26.37
2018-10-18T08:34:55.971Z,27.25
2018-10-18T08:37:24.440Z,31.17
2018-10-18T08:39:52.592Z,32.05
2018-10-18T08:42:20.693Z,32.13
2018-10-18T08:44:48.984Z,33.25
2018-10-18T08:47:17.131Z,34.18
2018-10-18T08:49:45.345Z,36.48
2018-10-18T08:52:13.468Z,36.65
2018-10-18T08:54:41.601Z,39.90
2018-10-18T08:57:09.741Z,43.57
2018-10-18T08:59:37.904Z,45.90
2018-10-18T09:02:06.113Z,45.65
2018-10-18T09:04:34.318Z,45.35
2018-10-18T09:07:02.515Z,46.10
2018-10-18T09:09:30.608Z,47.98
2018-10-18T09:11:58.813Z,46.98
2018-10-18T09:14:26.989Z,45.52
2018-10-18T09:16:55.218Z,47.20
2018-10-18T09:19:23.350Z,45.45
2018-10-18T09:21:51.537Z,44.70
2018-10-18T09:24:19.684Z,43.20
2018-10-18T09:26:48.001Z,41.20
2018-10-18T09:29:16.166Z,43.70
2018-10-18T09:31:44.397Z,42.65
2018-10-18T09:34:12.498Z,41.33
2018-10-18T09:36:40.622Z,40.10
2018-10-18T09:39:09.438Z,40.00
2018-10-18T09:41:37.646Z,38.10
2018-10-18T09:44:06.701Z,37.33
2018-10-18T09:46:35.901Z,37.93
2018-10-18T09:49:04.608Z,37.80
2018-10-18T09:51:32.752Z,37.35
2018-10-18T09:54:01.729Z,36.80
2018-10-18T09:56:30.395Z,37.37
2018-10-18T09:58:58.504Z,36.70
2018-10-18T10:01:32.231Z,36.20
2018-10-18T10:04:00.375Z,36.70
2018-10-18T10:06:29.869Z,35.37
2018-10-18T10:08:58.014Z,38.10
2018-10-18T10:11:26.435Z,35.45
2018-10-18T10:13:54.527Z,36.42
2018-10-18T10:16:22.838Z,35.92
2018-10-18T10:18:50.993Z,36.20
2018-10-18T10:21:19.265Z,35.63
2018-10-18T10:23:47.453Z,34.78
2018-10-18T10:26:15.584Z,35.60
2018-10-18T10:28:43.779Z,35.48
2018-10-18T10:31:12.011Z,36.38
2018-10-18T10:33:40.291Z,34.75
2018-10-18T10:36:08.509Z,33.88
2018-10-18T10:38:37.438Z,35.73
2018-10-18T10:41:05.801Z,35.20
2018-10-18T10:43:33.993Z,33.83
2018-10-18T10:46:02.180Z,34.20
2018-10-18T10:48:30.629Z,33.18
2018-10-18T10:50:58.868Z,32.63
2018-10-18T10:53:27.166Z,34.38
2018-10-18T10:55:55.283Z,34.25
2018-10-18T10:58:23.389Z,35.17
2018-10-18T11:01:08.377Z,34.55
2018-10-18T11:03:36.961Z,35.92
2018-10-18T11:06:05.154Z,31.75
2018-10-18T11:08:33.521Z,34.40
2018-10-18T11:11:01.676Z,33.02
2018-10-18T11:13:30.408Z,32.40
2018-10-18T11:15:59.885Z,32.58
2018-10-18T11:18:28.042Z,34.08
2018-10-18T11:20:56.187Z,32.50
2018-10-18T11:23:24.257Z,31.97
2018-10-18T11:25:52.674Z,32.27
2018-10-18T11:28:20.765Z,31.13
2018-10-18T11:30:48.921Z,32.05
2018-10-18T11:33:17.168Z,31.35
2018-10-18T11:35:45.451Z,31.33
2018-10-18T11:38:14.720Z,31.93
2018-10-18T11:40:43.041Z,29.27
2018-10-18T11:43:11.602Z,29.12
2018-10-18T11:45:40.117Z,29.57
2018-10-18T11:48:09.427Z,32.00
2018-10-18T11:50:37.471Z,29.92
2018-10-18T11:53:05.769Z,29.65
2018-10-18T11:55:33.854Z,28.75
2018-10-18T11:58:02.140Z,29.90
2018-10-18T12:00:30.217Z,29.00
2018-10-18T12:02:58.395Z,31.23
2018-10-18T12:05:26.718Z,30.50
2018-10-18T12:07:59.127Z,30.12
2018-10-18T12:10:27.257Z,30.08
2018-10-18T12:12:55.360Z,29.87
2018-10-18T12:15:23.557Z,28.40
2018-10-18T12:17:51.688Z,32.30
2018-10-18T12:20:20.114Z,31.17
2018-10-18T12:22:48.167Z,30.43
2018-10-18T12:25:17.276Z,29.87
2018-10-18T12:27:45.549Z,29.15
2018-10-18T12:30:14.269Z,31.10
2018-10-18T12:32:42.493Z,27.33
2018-10-18T12:35:10.768Z,29.52
2018-10-18T12:37:38.845Z,28.50
2018-10-18T12:40:08.009Z,27.35
2018-10-18T12:42:37.429Z,26.68
2018-10-18T12:45:07.172Z,31.07
2018-10-18T12:47:35.324Z,27.90
2018-10-18T12:50:03.460Z,26.65
2018-10-18T12:52:31.516Z,26.93
2018-10-18T12:54:59.708Z,27.75
2018-10-18T12:57:28.424Z,28.30
2018-10-18T12:59:56.550Z,27.98
2018-10-18T13:02:24.892Z,24.80
2018-10-18T13:04:52.910Z,26.43
2018-10-18T13:07:21.353Z,24.90
2018-10-18T13:09:49.440Z,24.47
2018-10-18T13:12:17.738Z,26.07
2018-10-18T13:14:45.754Z,25.30
2018-10-18T13:17:14.073Z,23.40
2018-10-18T13:19:42.172Z,24.95
2018-10-18T13:22:10.329Z,24.75
2018-10-18T13:24:38.413Z,23.07
2018-10-18T13:27:06.679Z,25.17
2018-10-18T13:29:34.843Z,25.23
2018-10-18T13:32:03.006Z,23.85
2018-10-18T13:34:31.110Z,23.52
2018-10-18T13:36:59.200Z,26.13
2018-10-18T13:39:27.397Z,25.20
2018-10-18T13:41:55.520Z,27.60
2018-10-18T13:44:23.803Z,27.40
2018-10-18T13:46:51.899Z,28.27
2018-10-18T13:49:20.053Z,29.70
2018-10-18T13:51:48.170Z,28.35
2018-10-18T13:54:16.459Z,28.80
2018-10-18T13:56:44.459Z,28.40
2018-10-18T14:00:24.661Z,28.15
2018-10-18T14:02:53.757Z,28.73
2018-10-18T14:05:22.179Z,28.17
2018-10-18T14:07:51.384Z,28.65
2018-10-18T14:10:19.706Z,28.98
2018-10-18T14:12:47.909Z,29.10
2018-10-18T14:15:16.192Z,27.93
2018-10-18T14:17:44.422Z,28.27
2018-10-18T14:20:12.695Z,28.07
2018-10-18T14:22:41.205Z,28.03
2018-10-18T14:25:09.882Z,27.98
2018-10-18T14:27:38.066Z,28.47
2018-10-18T14:30:07.631Z,27.85
2018-10-18T14:32:36.007Z,28.32
2018-10-18T14:35:04.329Z,26.10
2018-10-18T14:37:32.445Z,25.70
2018-10-18T14:40:00.632Z,27.40
2018-10-18T14:42:28.936Z,26.50
2018-10-18T14:44:57.255Z,27.55
2018-10-18T14:47:25.365Z,26.68
2018-10-18T14:49:53.485Z,27.70
2018-10-18T14:52:21.571Z,26.15
2018-10-18T14:54:49.642Z,25.33
2018-10-18T14:57:17.881Z,27.93
2018-10-18T14:59:45.985Z,27.20
2018-10-18T15:02:14.179Z,26.65
2018-10-18T15:04:42.405Z,26.07
2018-10-18T15:07:10.371Z,27.30
2018-10-18T15:09:38.524Z,25.25
2018-10-18T15:12:07.240Z,24.87
2018-10-18T15:14:35.399Z,23.40
2018-10-18T15:17:04.072Z,25.30
2018-10-18T15:19:32.112Z,25.65
2018-10-18T15:22:00.221Z,24.55
2018-10-18T15:24:28.495Z,26.70
2018-10-18T15:26:56.842Z,24.47
2018-10-18T15:29:24.748Z,24.40
2018-10-18T15:31:52.901Z,24.50
2018-10-18T15:34:20.993Z,23.40
2018-10-18T15:36:49.090Z,24.40
2018-10-18T15:39:17.455Z,25.37
2018-10-18T15:41:45.582Z,23.80
2018-10-18T15:44:13.971Z,25.48
2018-10-18T15:46:42.085Z,24.12
2018-10-18T15:49:10.256Z,23.42
2018-10-18T15:51:38.384Z,23.18
2018-10-18T15:54:07.217Z,24.02
2018-10-18T15:56:35.629Z,22.87
2018-10-18T15:59:03.813Z,23.42
2018-10-18T16:01:31.948Z,23.75
2018-10-18T16:04:00.115Z,23.12
2018-10-18T16:06:28.542Z,21.90
2018-10-18T16:08:56.742Z,22.82
2018-10-18T16:11:25.090Z,23.75
2018-10-18T16:13:53.060Z,23.22
2018-10-18T16:16:21.165Z,25.32
2018-10-18T16:18:49.311Z,24.40
2018-10-18T16:21:17.481Z,23.77
2018-10-18T16:23:45.745Z,24.43
2018-10-18T16:26:14.053Z,24.70
2018-10-18T16:28:42.057Z,25.27
2018-10-18T16:31:10.237Z,24.43
2018-10-18T16:33:38.435Z,25.05
2018-10-18T16:36:06.701Z,24.75
2018-10-18T16:38:34.817Z,24.32
2018-10-18T16:41:03.287Z,23.57
2018-10-18T16:43:31.319Z,23.62
2018-10-18T16:45:59.579Z,23.35
2018-10-18T16:48:27.669Z,23.15
2018-10-18T16:50:55.852Z,23.70
2018-10-18T16:53:24.043Z,23.53
2018-10-18T16:55:52.223Z,22.23
2018-10-18T16:58:20.317Z,22.95
2018-10-18T17:00:48.450Z,23.87
2018-10-18T17:03:16.598Z,22.52
2018-10-18T17:05:44.800Z,22.93
2018-10-18T17:08:12.985Z,23.30
2018-10-18T17:10:41.229Z,23.83
2018-10-18T17:13:09.439Z,23.77
2018-10-18T17:15:37.569Z,23.50
2018-10-18T17:18:05.773Z,23.83
2018-10-18T17:20:33.960Z,24.85
2018-10-18T17:23:02.300Z,25.57
2018-10-18T17:25:30.550Z,25.52
2018-10-18T17:27:58.638Z,24.82
2018-10-18T17:30:26.736Z,25.10
2018-10-18T17:32:54.898Z,24.83
2018-10-18T17:35:23.009Z,25.55
2018-10-18T17:37:51.237Z,24.75
2018-10-18T17:40:19.538Z,25.43
2018-10-18T17:42:48.649Z,24.00
2018-10-18T17:45:16.847Z,25.82
2018-10-18T17:47:44.937Z,24.90
2018-10-18T17:50:13.284Z,24.47
2018-10-18T17:52:41.425Z,25.12
2018-10-18T17:55:09.517Z,24.92
2018-10-18T17:57:41.608Z,25.12
2018-10-18T18:00:12.486Z,24.82
2018-10-18T18:02:40.930Z,25.27
2018-10-18T18:05:09.727Z,25.00
2018-10-18T18:07:38.001Z,25.60
2018-10-18T18:10:08.336Z,25.12
2018-10-18T18:12:36.934Z,25.57
2018-10-18T18:15:11.182Z,25.27
2018-10-18T18:17:41.072Z,26.12
2018-10-18T18:20:10.503Z,25.75
2018-10-18T18:22:38.712Z,26.13
2018-10-18T18:25:08.229Z,27.47
2018-10-18T18:27:36.345Z,28.00
2018-10-18T18:30:06.289Z,27.20
2018-10-18T18:32:34.562Z,26.53
2018-10-18T18:35:02.718Z,27.50
2018-10-18T18:37:35.039Z,26.87
2018-10-18T18:40:03.521Z,26.33
2018-10-18T18:42:32.661Z,27.93
2018-10-18T18:45:06.110Z,26.30
2018-10-18T18:47:34.489Z,26.25
2018-10-18T18:50:02.606Z,26.75
2018-10-18T18:52:30.757Z,27.90
2018-10-18T18:55:00.004Z,26.77
2018-10-18T18:57:28.138Z,26.30
2018-10-18T18:59:56.278Z,25.92
2018-10-18T19:02:24.566Z,25.27
2018-10-18T19:04:52.766Z,26.40
2018-10-18T19:07:21.191Z,25.60
2018-10-18T19:09:49.309Z,26.37
2018-10-18T19:12:17.490Z,25.77
2018-10-18T19:14:45.674Z,25.40
2018-10-18T19:17:13.816Z,26.10
2018-10-18T19:19:42.015Z,25.97
2018-10-18T19:22:10.161Z,26.93
2018-10-18T19:24:38.281Z,25.57
2018-10-18T19:27:07.450Z,26.90
2018-10-18T19:29:35.655Z,26.33
2018-10-18T19:32:03.835Z,25.10
2018-10-18T19:34:32.096Z,25.27
2018-10-18T19:37:00.256Z,26.27
2018-10-18T19:39:28.397Z,25.85
2018-10-18T19:41:56.486Z,25.92
2018-10-18T19:44:24.821Z,25.77
2018-10-18T19:46:52.941Z,24.87
2018-10-18T19:49:21.172Z,25.37
2018-10-18T19:51:49.394Z,25.02
2018-10-18T19:54:17.499Z,25.70
2018-10-18T19:56:45.601Z,25.25
2018-10-18T19:59:13.748Z,25.52
2018-10-18T20:01:41.886Z,26.23
2018-10-18T20:04:10.008Z,25.37
2018-10-18T20:06:38.134Z,25.75
2018-10-18T20:09:08.504Z,25.27
2018-10-18T20:11:36.785Z,25.23
2018-10-18T20:14:05.308Z,24.72
2018-10-18T20:16:33.358Z,24.98
2018-10-18T20:19:01.488Z,24.90
2018-10-18T20:21:29.624Z,25.97
2018-10-18T20:23:57.826Z,25.82
2018-10-18T20:26:26.278Z,25.35
2018-10-18T20:28:54.847Z,25.23
2018-10-18T20:31:23.034Z,26.17
2018-10-18T20:33:51.170Z,24.95
2018-10-18T20:36:19.296Z,24.90
2018-10-18T20:38:47.547Z,25.40
2018-10-18T20:41:15.717Z,24.92
2018-10-18T20:43:44.069Z,25.02
2018-10-18T20:46:12.212Z,24.43
2018-10-18T20:48:40.907Z,25.23
2018-10-18T20:51:09.416Z,24.33
2018-10-18T20:53:37.514Z,22.87
2018-10-18T20:56:05.787Z,24.70
2018-10-18T20:58:33.973Z,24.12
2018-10-18T21:01:02.058Z,23.12
2018-10-18T21:03:30.196Z,23.57
2018-10-18T21:05:58.468Z,23.42
2018-10-18T21:08:26.544Z,22.20
2018-10-18T21:10:55.112Z,21.55
2018-10-18T21:13:23.290Z,20.97
2018-10-18T21:15:51.417Z,19.52
2018-10-18T21:18:19.678Z,19.07
2018-10-18T21:20:47.978Z,19.17
2018-10-18T21:23:16.187Z,18.50
2018-10-18T21:25:44.327Z,17.35
2018-10-18T21:28:12.535Z,17.27
2018-10-18T21:30:40.672Z,16.55
2018-10-18T21:33:08.919Z,16.48
2018-10-18T21:35:37.054Z,15.80
2018-10-18T21:38:05.407Z,15.80
2018-10-18T21:40:33.510Z,14.83
2018-10-18T21:43:01.630Z,14.70
2018-10-18T21:45:29.801Z,14.57
2018-10-18T21:47:58.177Z,14.27
2018-10-18T21:50:26.273Z,13.95
2018-10-18T21:52:54.529Z,14.15
2018-10-18T21:55:22.595Z,13.45
2018-10-18T21:57:50.777Z,12.68
2018-10-18T22:00:18.919Z,12.53
2018-10-18T22:02:47.439Z,13.00
2018-10-18T22:05:15.939Z,12.47
2018-10-18T22:07:44.393Z,12.50
2018-10-18T22:10:13.193Z,12.10
2018-10-18T22:12:41.345Z,12.45
2018-10-18T22:15:10.685Z,11.90
2018-10-18T22:17:38.782Z,11.50
2018-10-18T22:20:08.035Z,11.60
2018-10-18T22:22:36.161Z,11.90
2018-10-18T22:25:04.673Z,11.00
2018-10-18T22:27:32.904Z,10.88
2018-10-18T22:30:01.031Z,10.43
2018-10-18T22:32:29.248Z,10.75
2018-10-18T22:34:57.370Z,9.53
2018-10-18T22:37:25.557Z,10.00
2018-10-18T22:39:53.676Z,10.00
2018-10-18T22:42:21.920Z,9.55
2018-10-18T22:44:50.033Z,9.50
2018-10-18T22:47:18.260Z,9.48
2018-10-18T22:49:46.469Z,8.93
2018-10-18T22:52:14.617Z,9.33
2018-10-18T22:54:42.761Z,8.83
2018-10-18T22:57:11.058Z,8.68
2018-10-18T22:59:39.120Z,8.50
2018-10-18T23:02:07.254Z,8.48
2018-10-18T23:04:35.380Z,8.23
2018-10-18T23:07:03.556Z,7.75
2018-10-18T23:09:31.685Z,8.03
2018-10-18T23:11:59.830Z,8.10
2018-10-18T23:14:28.055Z,8.15
2018-10-18T23:16:56.386Z,8.28
2018-10-18T23:19:24.487Z,7.97
2018-10-18T23:21:52.622Z,7.33
2018-10-18T23:24:20.852Z,7.80
2018-10-18T23:26:48.987Z,7.40
2018-10-18T23:29:17.330Z,7.28
2018-10-18T23:31:45.405Z,7.40
2018-10-18T23:34:13.524Z,7.40
2018-10-18T23:37:12.789Z,7.50
2018-10-18T23:39:40.980Z,7.30
2018-10-18T23:42:09.106Z,7.45
2018-10-18T23:44:37.251Z,7.15
2018-10-18T23:47:05.997Z,6.87
2018-10-18T23:49:34.073Z,7.10
2018-10-18T23:52:02.221Z,7.47
2018-10-18T23:54:30.349Z,7.50
2018-10-18T23:56:58.491Z,7.20
2018-10-18T23:59:26.691Z,7.30
